GMFO/OUD METAR and TAF weather

Enter ICAO airport designator
Station Type Date Time Source
GMFO METAR 2020/03/28 19:30 UTC NOAA

GMFO 281930Z 33009KT 9999 FEW030 11/08 Q1017 NOSIG


Station Type Date Time Source
GMFO Decoded METAR 2020/03/28 19:30 UTC NOAA

Oujda, Morocco (GMFO) 34-47N 001-56W 470M
Mar 28, 2020 - 03:30 PM EDT / 2020.03.28 1930 UTC
Wind: from the NNW (330 degrees) at 10 MPH (9 KT):0
Visibility: greater than 7 mile(s):0
Sky conditions: mostly clear
Temperature: 51 F (11 C)
Dew Point: 46 F (8 C)
Relative Humidity: 81%
Pressure (altimeter): 30.03 in. Hg (1017 hPa)
ob: GMFO 281930Z 33009KT 9999 FEW030 11/08 Q1017 NOSIG
cycle: 19

Station Type Date Time Source
GMFO TAF 2020/03/28 18:27 UTC NOAA

TAF TAF GMFO 281700Z 2818/2924 33011KT 9999 FEW050 BKN090
TEMPO 2820/2908 20004KT

Example: see airport list